Time;durP1;ratioP1;P1;durP2;ratioP2;P2;SDS_P1;SDS_P2;PMS_P1;PMS_P2;Temp;Humidity;BMP_temperature;BMP_pressure;BME280_temperature;BME280_humidity;BME280_pressure;Samples;Min_cycle;Max_cycle;Signal;HPM_P1;HPM_P2
2023/07/09 00:00:18;;;;;;;;;;;23.30;94.00;;;;;;5013611;28;20008;-55
2023/07/09 00:02:43;;;;;;;;;;;23.30;94.00;;;;;;5031201;28;19941;-54
2023/07/09 00:05:14;;;;;;;;;;;23.30;94.20;;;;;;5031039;28;19975;-54
2023/07/09 00:07:40;;;;;;;;;;;23.30;94.30;;;;;;5031235;28;20007;-53
2023/07/09 00:10:13;;;;;;;;;;;23.30;94.20;;;;;;5031278;28;20011;-51
2023/07/09 00:12:38;;;;;;;;;;;23.30;94.30;;;;;;5030874;28;19909;-53
2023/07/09 00:15:04;;;;;;;;;;;23.30;94.20;;;;;;5031003;28;19920;-53
2023/07/09 00:17:31;;;;;;;;;;;23.30;94.30;;;;;;5031000;28;20130;-52
2023/07/09 00:19:57;;;;;;;;;;;23.30;94.40;;;;;;5031095;28;19912;-53
2023/07/09 00:22:22;;;;;;;;;;;23.20;94.60;;;;;;5030713;28;20332;-55
2023/07/09 00:24:50;;;;;;;;;;;23.10;94.80;;;;;;5013419;28;19932;-54
2023/07/09 00:27:18;;;;;;;;;;;23.10;94.90;;;;;;5031136;28;19972;-52
2023/07/09 00:29:44;;;;;;;;;;;23.10;95.00;;;;;;5013423;28;19952;-54
2023/07/09 00:32:15;;;;;;;;;;;23.10;95.00;;;;;;5013229;28;20306;-52
2023/07/09 00:34:48;;;;;;;;;;;23.00;95.20;;;;;;5013091;28;20268;-53
2023/07/09 00:37:17;;;;;;;;;;;23.00;95.10;;;;;;5013104;28;19979;-53
2023/07/09 00:39:44;;;;;;;;;;;23.00;95.20;;;;;;5030995;28;20251;-55
2023/07/09 00:42:17;;;;;;;;;;;22.90;95.30;;;;;;5030633;28;19909;-54
2023/07/09 00:44:45;;;;;;;;;;;22.80;95.50;;;;;;5013002;28;19913;-53
2023/07/09 00:47:23;;;;;;;;;;;22.70;95.80;;;;;;5013347;28;20331;-55
2023/07/09 00:50:18;;;;;;;;;;;22.70;95.90;;;;;;5013286;28;19913;-53
2023/07/09 00:52:49;;;;;;;;;;;22.70;96.10;;;;;;5011176;28;20312;-56
2023/07/09 00:55:17;;;;;;;;;;;22.60;96.20;;;;;;5013436;28;19948;-55
2023/07/09 00:57:44;;;;;;;;;;;22.60;96.00;;;;;;5013022;28;20340;-53
2023/07/09 01:00:12;;;;;;;;;;;22.70;96.00;;;;;;5013178;28;19915;-55
2023/07/09 01:02:43;;;;;;;;;;;22.70;95.80;;;;;;5030545;28;20361;-51
2023/07/09 01:05:10;;;;;;;;;;;22.60;95.80;;;;;;5030640;28;19972;-55
2023/07/09 01:07:36;;;;;;;;;;;22.60;95.90;;;;;;5013088;28;19909;-54
2023/07/09 01:10:02;;;;;;;;;;;22.60;96.20;;;;;;5032843;28;19909;-51
2023/07/09 01:12:30;;;;;;;;;;;22.50;96.30;;;;;;5033909;28;19909;-53
2023/07/09 01:14:58;;;;;;;;;;;22.50;96.50;;;;;;5034393;28;20261;-53
2023/07/09 01:17:29;;;;;;;;;;;22.50;96.40;;;;;;5033999;28;19909;-54
2023/07/09 01:19:55;;;;;;;;;;;22.60;96.30;;;;;;5034032;28;19999;-54
2023/07/09 01:22:21;;;;;;;;;;;22.60;96.40;;;;;;5033738;28;20259;-54
2023/07/09 01:24:55;;;;;;;;;;;22.60;96.60;;;;;;5015932;28;19909;-52
2023/07/09 01:27:23;;;;;;;;;;;22.60;96.70;;;;;;5016008;28;19912;-53
2023/07/09 01:29:49;;;;;;;;;;;22.50;96.80;;;;;;5016116;28;19909;-56
2023/07/09 01:32:18;;;;;;;;;;;22.50;97.30;;;;;;5033457;28;19913;-52
2023/07/09 01:34:44;;;;;;;;;;;22.40;97.50;;;;;;5033444;28;19909;-55
2023/07/09 01:37:10;;;;;;;;;;;22.40;97.80;;;;;;5033625;28;19951;-55
2023/07/09 01:39:35;;;;;;;;;;;22.30;97.90;;;;;;5015662;28;19967;-52
2023/07/09 01:42:01;;;;;;;;;;;22.40;98.40;;;;;;5033283;28;19944;-54
2023/07/09 01:44:29;;;;;;;;;;;22.30;98.30;;;;;;5015531;28;19909;-55
2023/07/09 01:46:54;;;;;;;;;;;22.30;98.20;;;;;;5015598;28;19909;-54
2023/07/09 01:49:20;;;;;;;;;;;22.30;98.50;;;;;;5015460;28;20324;-55
2023/07/09 01:51:49;;;;;;;;;;;22.30;98.80;;;;;;5015391;28;19909;-55
2023/07/09 01:54:16;;;;;;;;;;;22.10;99.20;;;;;;5032867;28;20415;-54
2023/07/09 01:56:42;;;;;;;;;;;22.00;99.60;;;;;;5015447;28;19909;-54
2023/07/09 01:59:10;;;;;;;;;;;22.00;99.60;;;;;;5015444;28;19968;-56
2023/07/09 02:01:37;;;;;;;;;;;22.00;99.40;;;;;;5033337;28;20284;-53
2023/07/09 02:04:03;;;;;;;;;;;21.90;99.70;;;;;;5014929;28;19956;-54
2023/07/09 02:06:31;;;;;;;;;;;21.90;99.90;;;;;;5015198;28;20262;-54
2023/07/09 02:08:58;;;;;;;;;;;21.90;99.90;;;;;;5015344;28;20015;-55
2023/07/09 02:11:23;;;;;;;;;;;21.80;99.90;;;;;;5032855;28;20258;-51
2023/07/09 02:13:50;;;;;;;;;;;21.70;99.90;;;;;;5014831;28;20148;-52
2023/07/09 02:16:16;;;;;;;;;;;21.70;99.90;;;;;;5033016;28;19956;-50
2023/07/09 02:18:41;;;;;;;;;;;21.60;99.90;;;;;;4998619;28;19913;-53
2023/07/09 02:21:07;;;;;;;;;;;21.60;99.90;;;;;;5014123;28;19909;-55
2023/07/09 02:23:32;;;;;;;;;;;21.50;99.90;;;;;;5032243;28;19976;-54
2023/07/09 02:25:58;;;;;;;;;;;21.40;99.90;;;;;;5032667;28;20007;-54
2023/07/09 02:28:23;;;;;;;;;;;21.30;99.90;;;;;;5032781;28;19913;-55
2023/07/09 02:30:49;;;;;;;;;;;21.30;99.90;;;;;;5032647;28;19916;-55
2023/07/09 02:33:14;;;;;;;;;;;21.20;99.90;;;;;;5014666;28;20385;-55
2023/07/09 02:35:40;;;;;;;;;;;21.10;99.90;;;;;;5032307;28;19909;-54
2023/07/09 02:38:05;;;;;;;;;;;21.00;99.90;;;;;;5014662;28;20011;-53
2023/07/09 02:40:31;;;;;;;;;;;20.90;99.90;;;;;;5014730;28;19908;-51
2023/07/09 02:42:56;;;;;;;;;;;20.90;99.90;;;;;;5032351;28;19915;-54
2023/07/09 02:45:22;;;;;;;;;;;20.90;99.90;;;;;;5014386;28;20025;-54
2023/07/09 02:47:48;;;;;;;;;;;20.90;99.90;;;;;;5014679;28;19909;-53
2023/07/09 02:50:14;;;;;;;;;;;21.00;99.90;;;;;;5014508;28;19909;-55
2023/07/09 02:52:42;;;;;;;;;;;21.10;99.90;;;;;;5014187;28;20003;-55
2023/07/09 02:55:08;;;;;;;;;;;21.30;99.90;;;;;;5032178;28;20279;-54
2023/07/09 02:57:34;;;;;;;;;;;21.40;99.90;;;;;;5032059;28;19909;-55
2023/07/09 02:59:59;;;;;;;;;;;21.50;99.90;;;;;;5014397;28;19909;-51
2023/07/09 03:02:25;;;;;;;;;;;21.50;99.90;;;;;;5013966;28;19916;-53
2023/07/09 03:04:51;;;;;;;;;;;21.50;99.90;;;;;;5014225;28;19917;-55
2023/07/09 03:07:17;;;;;;;;;;;21.50;99.90;;;;;;5014232;28;19913;-56
2023/07/09 03:09:42;;;;;;;;;;;21.50;99.90;;;;;;5014204;28;19974;-54
2023/07/09 03:12:08;;;;;;;;;;;21.50;99.90;;;;;;5014166;28;20561;-55
2023/07/09 03:14:33;;;;;;;;;;;21.40;99.90;;;;;;5013897;28;19909;-55
2023/07/09 03:16:59;;;;;;;;;;;21.40;99.90;;;;;;5013948;28;19908;-55
2023/07/09 03:19:24;;;;;;;;;;;21.30;99.90;;;;;;5013827;28;19920;-55
2023/07/09 03:21:50;;;;;;;;;;;21.30;99.90;;;;;;5013834;28;19913;-54
2023/07/09 03:24:18;;;;;;;;;;;21.30;99.90;;;;;;5013719;28;19908;-55
2023/07/09 03:26:45;;;;;;;;;;;21.30;99.90;;;;;;5031605;28;19956;-56
2023/07/09 03:29:11;;;;;;;;;;;21.20;99.90;;;;;;5031642;28;20421;-52
2023/07/09 03:31:36;;;;;;;;;;;21.20;99.90;;;;;;5031422;28;20007;-54
2023/07/09 03:34:02;;;;;;;;;;;21.20;99.90;;;;;;5013630;28;19935;-54
2023/07/09 03:36:28;;;;;;;;;;;21.20;99.90;;;;;;5014138;28;19966;-53
2023/07/09 03:38:54;;;;;;;;;;;21.20;99.90;;;;;;5031731;28;19913;-56
2023/07/09 03:41:19;;;;;;;;;;;21.10;99.90;;;;;;5031429;28;20282;-54
2023/07/09 03:43:45;;;;;;;;;;;21.20;99.90;;;;;;5031240;28;20328;-54
2023/07/09 03:46:11;;;;;;;;;;;21.30;99.90;;;;;;5031437;28;19909;-55
2023/07/09 03:48:36;;;;;;;;;;;21.40;99.90;;;;;;5031514;28;20085;-52
2023/07/09 03:51:02;;;;;;;;;;;21.40;99.90;;;;;;5031367;28;19916;-54
2023/07/09 03:53:27;;;;;;;;;;;21.40;99.90;;;;;;5031149;28;19956;-55
2023/07/09 03:55:54;;;;;;;;;;;21.40;99.90;;;;;;5031095;28;19963;-50
2023/07/09 03:58:19;;;;;;;;;;;21.40;99.90;;;;;;5031145;28;19920;-53
2023/07/09 04:00:45;;;;;;;;;;;21.40;99.90;;;;;;5031195;28;19909;-54
2023/07/09 04:03:11;;;;;;;;;;;21.40;99.90;;;;;;5031438;28;19916;-52
2023/07/09 04:05:37;;;;;;;;;;;21.40;99.90;;;;;;5031043;28;19909;-55
2023/07/09 04:08:03;;;;;;;;;;;21.50;99.90;;;;;;5031211;28;19952;-54
2023/07/09 04:10:28;;;;;;;;;;;21.40;99.90;;;;;;5031121;28;19909;-55
2023/07/09 04:12:54;;;;;;;;;;;21.40;99.90;;;;;;5030900;28;20003;-53
2023/07/09 04:15:19;;;;;;;;;;;21.40;99.90;;;;;;5030894;28;20004;-53
2023/07/09 04:17:45;;;;;;;;;;;21.40;99.90;;;;;;5030782;28;19909;-54
2023/07/09 04:20:11;;;;;;;;;;;21.40;99.90;;;;;;5031092;28;19909;-54
2023/07/09 04:22:37;;;;;;;;;;;21.40;99.90;;;;;;5012997;28;20008;-54
2023/07/09 04:25:03;;;;;;;;;;;21.40;99.90;;;;;;5030847;28;19913;-55
2023/07/09 04:27:30;;;;;;;;;;;21.40;99.90;;;;;;5031286;28;19909;-55
2023/07/09 04:29:55;;;;;;;;;;;21.50;99.90;;;;;;5030978;28;19909;-52
2023/07/09 04:32:21;;;;;;;;;;;21.60;99.90;;;;;;5030571;28;19919;-53
2023/07/09 04:34:47;;;;;;;;;;;21.70;99.90;;;;;;5030673;28;19915;-56
2023/07/09 04:37:13;;;;;;;;;;;21.80;99.90;;;;;;5031160;28;19920;-55
2023/07/09 04:39:39;;;;;;;;;;;21.90;99.90;;;;;;5030703;28;20281;-56
2023/07/09 04:42:10;;;;;;;;;;;22.00;99.90;;;;;;5030622;28;19909;-55
2023/07/09 04:44:36;;;;;;;;;;;22.00;99.90;;;;;;5032176;28;19924;-54
2023/07/09 04:47:01;;;;;;;;;;;22.10;99.90;;;;;;5034503;28;19908;-51
2023/07/09 04:49:27;;;;;;;;;;;22.10;99.90;;;;;;5034618;28;19913;-53
2023/07/09 04:51:52;;;;;;;;;;;22.20;99.90;;;;;;5034317;28;19975;-55
2023/07/09 04:54:18;;;;;;;;;;;22.30;99.90;;;;;;5034257;28;20051;-55
2023/07/09 04:56:46;;;;;;;;;;;22.30;99.90;;;;;;5034441;28;19909;-50
2023/07/09 04:59:12;;;;;;;;;;;22.40;99.90;;;;;;5016576;28;19913;-54
2023/07/09 05:01:37;;;;;;;;;;;22.50;99.90;;;;;;5034095;28;20004;-54
2023/07/09 05:04:03;;;;;;;;;;;22.50;99.90;;;;;;5033967;28;19975;-52
2023/07/09 05:06:29;;;;;;;;;;;22.60;99.90;;;;;;5034216;28;19915;-53
2023/07/09 05:08:54;;;;;;;;;;;22.60;99.90;;;;;;5034097;28;20309;-53
2023/07/09 05:11:20;;;;;;;;;;;22.50;99.90;;;;;;5034049;28;19909;-54
2023/07/09 05:13:45;;;;;;;;;;;22.60;99.90;;;;;;5033741;28;19909;-50
2023/07/09 05:16:11;;;;;;;;;;;22.70;99.90;;;;;;5034005;28;19909;-53
2023/07/09 05:18:37;;;;;;;;;;;22.70;99.90;;;;;;5033772;28;19964;-51
2023/07/09 05:21:02;;;;;;;;;;;22.80;99.90;;;;;;5033950;28;19913;-50
2023/07/09 05:23:28;;;;;;;;;;;22.80;99.90;;;;;;5033669;28;19935;-52
2023/07/09 05:26:00;;;;;;;;;;;22.80;99.90;;;;;;5033726;28;19909;-54
2023/07/09 05:28:25;;;;;;;;;;;22.90;99.90;;;;;;5033744;28;19917;-50
2023/07/09 05:30:51;;;;;;;;;;;23.00;99.90;;;;;;5033730;28;20333;-50
2023/07/09 05:33:18;;;;;;;;;;;23.10;99.90;;;;;;5033474;28;19909;-50
2023/07/09 05:35:44;;;;;;;;;;;23.10;99.90;;;;;;5033621;28;20131;-51
2023/07/09 05:38:09;;;;;;;;;;;23.30;99.90;;;;;;5033754;28;20276;-50
2023/07/09 05:40:35;;;;;;;;;;;23.40;99.90;;;;;;5034077;28;20309;-54
2023/07/09 05:43:00;;;;;;;;;;;23.40;99.90;;;;;;5033203;28;19912;-52
2023/07/09 05:45:26;;;;;;;;;;;23.50;99.90;;;;;;5033142;28;19909;-53
2023/07/09 05:47:51;;;;;;;;;;;23.60;99.90;;;;;;5033512;28;19920;-50
2023/07/09 05:50:17;;;;;;;;;;;23.70;99.90;;;;;;5033521;28;19909;-52
2023/07/09 05:52:42;;;;;;;;;;;23.80;99.90;;;;;;5033257;28;19964;-52
2023/07/09 05:55:08;;;;;;;;;;;23.90;99.70;;;;;;5032707;28;20110;-51
2023/07/09 05:57:33;;;;;;;;;;;24.00;99.70;;;;;;5033130;28;19916;-50
2023/07/09 05:59:59;;;;;;;;;;;24.10;99.50;;;;;;5033459;28;19913;-52
2023/07/09 06:02:24;;;;;;;;;;;24.20;99.50;;;;;;5033195;28;20373;-52
2023/07/09 06:04:50;;;;;;;;;;;24.30;99.20;;;;;;5033129;28;20376;-53
2023/07/09 06:07:16;;;;;;;;;;;24.40;99.10;;;;;;5033315;28;19909;-51
2023/07/09 06:09:41;;;;;;;;;;;24.50;98.70;;;;;;5015836;28;20300;-52
2023/07/09 06:12:07;;;;;;;;;;;24.60;98.50;;;;;;5032895;28;20074;-49
2023/07/09 06:14:33;;;;;;;;;;;24.70;98.60;;;;;;5032678;28;19912;-50
2023/07/09 06:16:59;;;;;;;;;;;24.70;98.30;;;;;;5032951;28;19916;-50
2023/07/09 06:19:25;;;;;;;;;;;24.90;98.10;;;;;;5032759;28;19938;-54
2023/07/09 06:21:50;;;;;;;;;;;25.00;98.00;;;;;;5032732;28;20388;-50
2023/07/09 06:24:16;;;;;;;;;;;25.10;97.60;;;;;;5032474;28;20296;-50
2023/07/09 06:26:41;;;;;;;;;;;25.20;97.70;;;;;;5032750;28;20427;-53
2023/07/09 06:29:07;;;;;;;;;;;25.30;97.40;;;;;;5032653;28;19932;-50
2023/07/09 06:31:33;;;;;;;;;;;25.30;97.20;;;;;;5014694;28;19909;-50
2023/07/09 06:33:58;;;;;;;;;;;25.50;97.10;;;;;;5032339;28;19916;-52
2023/07/09 06:36:24;;;;;;;;;;;25.50;97.30;;;;;;5014873;28;20288;-52
2023/07/09 06:38:49;;;;;;;;;;;25.50;97.10;;;;;;5014688;28;19964;-52
2023/07/09 06:41:15;;;;;;;;;;;25.70;97.20;;;;;;5032522;28;19936;-51
2023/07/09 06:43:41;;;;;;;;;;;25.70;96.70;;;;;;5031934;28;20385;-51
2023/07/09 06:46:09;;;;;;;;;;;25.90;96.40;;;;;;5032413;28;19913;-51
2023/07/09 06:48:35;;;;;;;;;;;25.90;96.80;;;;;;5032274;28;20281;-50
2023/07/09 06:51:01;;;;;;;;;;;26.00;96.50;;;;;;5032361;28;19936;-50
2023/07/09 06:53:27;;;;;;;;;;;26.10;96.60;;;;;;5031938;28;19909;-55
2023/07/09 06:55:55;;;;;;;;;;;26.30;96.20;;;;;;5031953;28;19967;-52
2023/07/09 06:58:25;;;;;;;;;;;26.30;96.00;;;;;;5014322;28;20408;-51
2023/07/09 07:00:51;;;;;;;;;;;26.40;96.20;;;;;;5032123;28;19908;-55
2023/07/09 07:03:16;;;;;;;;;;;26.50;95.50;;;;;;5031745;28;20273;-53
2023/07/09 07:05:46;;;;;;;;;;;26.60;95.50;;;;;;5031792;28;19913;-54
2023/07/09 07:08:13;;;;;;;;;;;26.70;95.30;;;;;;5031590;28;19916;-54
2023/07/09 07:10:38;;;;;;;;;;;26.80;95.20;;;;;;5031843;28;19962;-53
2023/07/09 07:13:04;;;;;;;;;;;26.80;95.40;;;;;;5031487;28;20007;-51
2023/07/09 07:15:29;;;;;;;;;;;27.00;95.00;;;;;;5031705;28;19908;-55
2023/07/09 07:17:55;;;;;;;;;;;27.10;94.80;;;;;;5031806;28;19915;-54
2023/07/09 07:20:20;;;;;;;;;;;27.10;95.20;;;;;;5031596;28;20250;-51
2023/07/09 07:22:46;;;;;;;;;;;27.30;94.60;;;;;;5031483;28;20381;-52
2023/07/09 07:25:12;;;;;;;;;;;27.40;94.40;;;;;;5031532;28;20424;-50
2023/07/09 07:27:38;;;;;;;;;;;27.50;94.70;;;;;;5031603;28;19909;-54
2023/07/09 07:30:04;;;;;;;;;;;27.70;94.00;;;;;;5014142;28;19909;-52
2023/07/09 07:32:29;;;;;;;;;;;27.80;93.90;;;;;;5013561;28;19959;-54
2023/07/09 07:34:55;;;;;;;;;;;27.90;93.40;;;;;;5031232;28;19952;-54
2023/07/09 07:37:21;;;;;;;;;;;27.90;93.20;;;;;;5031729;28;19951;-51
2023/07/09 07:39:47;;;;;;;;;;;27.80;93.40;;;;;;5031448;28;19912;-53
2023/07/09 07:42:12;;;;;;;;;;;27.90;94.60;;;;;;5031146;28;19924;-53
2023/07/09 07:44:38;;;;;;;;;;;27.90;94.10;;;;;;5031271;28;20358;-51
2023/07/09 07:47:04;;;;;;;;;;;28.10;93.50;;;;;;5013736;28;19913;-55
2023/07/09 07:49:29;;;;;;;;;;;28.10;93.70;;;;;;5031391;28;19909;-55
2023/07/09 07:51:55;;;;;;;;;;;28.20;94.60;;;;;;5031141;28;19909;-56
2023/07/09 07:54:21;;;;;;;;;;;28.40;93.80;;;;;;5031059;28;19909;-52
2023/07/09 07:56:46;;;;;;;;;;;28.50;93.70;;;;;;5031146;28;19913;-53
2023/07/09 07:59:12;;;;;;;;;;;28.70;93.30;;;;;;5031318;28;20023;-54
2023/07/09 08:01:37;;;;;;;;;;;28.80;93.10;;;;;;5031525;28;19916;-54
2023/07/09 08:04:03;;;;;;;;;;;28.80;93.90;;;;;;5031051;28;19954;-54
2023/07/09 08:06:31;;;;;;;;;;;29.00;92.50;;;;;;5013691;28;19916;-56
2023/07/09 08:08:57;;;;;;;;;;;29.00;92.20;;;;;;5031401;28;19917;-55
2023/07/09 08:11:22;;;;;;;;;;;29.10;92.40;;;;;;5031612;28;20000;-53
2023/07/09 08:13:48;;;;;;;;;;;29.20;92.50;;;;;;5031088;28;20016;-55
2023/07/09 08:16:13;;;;;;;;;;;29.20;92.40;;;;;;5031325;28;19909;-53
2023/07/09 08:18:39;;;;;;;;;;;29.30;92.10;;;;;;5031242;28;19912;-54
2023/07/09 08:21:04;;;;;;;;;;;29.40;91.90;;;;;;5035211;28;19909;-55
2023/07/09 08:23:30;;;;;;;;;;;29.60;91.40;;;;;;5034800;28;19959;-55
2023/07/09 08:25:56;;;;;;;;;;;29.60;91.80;;;;;;5034752;28;19913;-55
2023/07/09 08:28:22;;;;;;;;;;;29.70;91.50;;;;;;5035024;28;19909;-52
2023/07/09 08:30:47;;;;;;;;;;;29.90;91.20;;;;;;5034961;28;19967;-55
2023/07/09 08:33:13;;;;;;;;;;;29.90;91.20;;;;;;5034821;28;19909;-54
2023/07/09 08:35:41;;;;;;;;;;;30.00;91.20;;;;;;5034559;28;19963;-55
2023/07/09 08:38:07;;;;;;;;;;;30.10;91.60;;;;;;5034680;28;19913;-53
2023/07/09 08:40:32;;;;;;;;;;;30.20;91.20;;;;;;5034646;28;19919;-52
2023/07/09 08:43:02;;;;;;;;;;;30.30;91.00;;;;;;5034534;28;19913;-54
2023/07/09 08:45:48;;;;;;;;;;;30.30;90.20;;;;;;5016873;28;19916;-49
2023/07/09 08:48:34;;;;;;;;;;;30.40;90.20;;;;;;5034129;28;19909;-52
2023/07/09 08:51:04;;;;;;;;;;;30.50;89.20;;;;;;5034176;28;20324;-56
2023/07/09 08:53:34;;;;;;;;;;;30.50;90.60;;;;;;5034292;28;19959;-53
2023/07/09 08:56:00;;;;;;;;;;;30.60;90.00;;;;;;5034491;28;19996;-54
2023/07/09 08:58:29;;;;;;;;;;;30.70;89.40;;;;;;5034442;28;20432;-54
2023/07/09 09:01:00;;;;;;;;;;;30.90;89.30;;;;;;5034399;28;19909;-54
2023/07/09 09:03:38;;;;;;;;;;;31.00;87.70;;;;;;5034086;28;20326;-56
2023/07/09 09:06:10;;;;;;;;;;;31.10;86.90;;;;;;5034642;28;19912;-51
2023/07/09 09:08:41;;;;;;;;;;;31.10;88.20;;;;;;5034305;28;19971;-54
2023/07/09 09:11:29;;;;;;;;;;;31.10;89.00;;;;;;5034260;28;19916;-53
2023/07/09 09:13:56;;;;;;;;;;;31.20;87.00;;;;;;5016301;28;19909;-54
2023/07/09 09:16:26;;;;;;;;;;;31.40;85.80;;;;;;5034074;28;19909;-52
2023/07/09 09:18:54;;;;;;;;;;;31.50;83.50;;;;;;5033916;28;19917;-52
2023/07/09 09:21:25;;;;;;;;;;;31.50;83.80;;;;;;5033844;28;19963;-51
2023/07/09 09:23:54;;;;;;;;;;;31.60;84.00;;;;;;5033548;28;20000;-51
2023/07/09 09:26:25;;;;;;;;;;;31.70;81.80;;;;;;5034443;28;19913;-54
2023/07/09 09:28:51;;;;;;;;;;;31.70;83.40;;;;;;5033881;28;19909;-53
2023/07/09 09:31:17;;;;;;;;;;;31.80;81.00;;;;;;5033702;28;19909;-52
2023/07/09 09:33:44;;;;;;;;;;;32.00;78.90;;;;;;5033298;28;19966;-52
2023/07/09 09:36:17;;;;;;;;;;;32.10;76.60;;;;;;5033738;28;19935;-51
2023/07/09 09:38:43;;;;;;;;;;;32.00;79.20;;;;;;5033361;28;19963;-55
2023/07/09 09:41:12;;;;;;;;;;;32.10;78.00;;;;;;5033645;28;20285;-53
2023/07/09 09:43:41;;;;;;;;;;;32.20;76.80;;;;;;5033207;28;19909;-54
2023/07/09 09:46:06;;;;;;;;;;;32.30;77.40;;;;;;5033539;28;20369;-55
2023/07/09 09:48:32;;;;;;;;;;;32.40;78.20;;;;;;5033544;28;19920;-54
2023/07/09 09:51:01;;;;;;;;;;;32.50;76.50;;;;;;5033517;28;19909;-54
2023/07/09 09:53:28;;;;;;;;;;;32.50;75.30;;;;;;5032998;28;20003;-55
2023/07/09 09:55:54;;;;;;;;;;;32.60;75.00;;;;;;5033188;28;19909;-52
2023/07/09 09:58:24;;;;;;;;;;;32.70;75.40;;;;;;5033220;28;19920;-55
2023/07/09 10:00:51;;;;;;;;;;;32.70;75.70;;;;;;5033323;28;19909;-54
2023/07/09 10:03:17;;;;;;;;;;;32.80;74.10;;;;;;5032998;28;19916;-55
2023/07/09 10:05:57;;;;;;;;;;;32.90;74.10;;;;;;5033010;28;19913;-53
2023/07/09 10:08:26;;;;;;;;;;;32.80;74.80;;;;;;5033337;28;19909;-51
2023/07/09 10:10:53;;;;;;;;;;;33.00;73.30;;;;;;5033174;28;19909;-52
2023/07/09 10:13:23;;;;;;;;;;;33.00;73.20;;;;;;5032910;28;19939;-53
2023/07/09 10:16:01;;;;;;;;;;;33.00;73.40;;;;;;5033312;28;19998;-55
2023/07/09 10:18:33;;;;;;;;;;;33.10;72.70;;;;;;5033428;28;19913;-52
2023/07/09 10:20:58;;;;;;;;;;;33.20;72.00;;;;;;5033079;28;20014;-52
2023/07/09 10:23:31;;;;;;;;;;;33.20;73.40;;;;;;5032662;28;19960;-54
2023/07/09 10:25:59;;;;;;;;;;;33.30;73.20;;;;;;5032868;28;19909;-56
2023/07/09 10:28:25;;;;;;;;;;;33.20;74.60;;;;;;5033043;28;19916;-55
2023/07/09 10:30:55;;;;;;;;;;;33.20;75.30;;;;;;5032892;28;19913;-53
2023/07/09 10:33:26;;;;;;;;;;;33.30;74.90;;;;;;5032605;28;19909;-54
2023/07/09 10:36:12;;;;;;;;;;;33.50;72.40;;;;;;5032680;28;19919;-53
2023/07/09 10:38:40;;;;;;;;;;;33.60;70.20;;;;;;5032596;28;19912;-53
2023/07/09 10:41:09;;;;;;;;;;;33.80;69.40;;;;;;5032296;28;19913;-52
2023/07/09 10:43:46;;;;;;;;;;;33.80;70.80;;;;;;5031760;28;19959;-49
2023/07/09 10:46:15;;;;;;;;;;;33.90;68.00;;;;;;5032472;28;19909;-52
2023/07/09 10:48:46;;;;;;;;;;;33.90;67.80;;;;;;5032330;28;19909;-50
2023/07/09 10:51:29;;;;;;;;;;;33.90;67.60;;;;;;5032251;28;19909;-54
2023/07/09 10:53:54;;;;;;;;;;;33.80;68.40;;;;;;5014210;28;20375;-56
2023/07/09 10:56:25;;;;;;;;;;;33.90;67.00;;;;;;5032510;28;19916;-55
2023/07/09 10:58:51;;;;;;;;;;;34.00;68.30;;;;;;5032046;28;19917;-53
2023/07/09 11:01:28;;;;;;;;;;;34.10;67.70;;;;;;4997988;28;19916;-56
2023/07/09 11:03:58;;;;;;;;;;;34.10;67.00;;;;;;5031803;28;19909;-56
2023/07/09 11:06:28;;;;;;;;;;;34.20;68.20;;;;;;5031935;28;19947;-53
2023/07/09 11:08:55;;;;;;;;;;;34.20;67.70;;;;;;5032001;28;20015;-52
2023/07/09 11:11:33;;;;;;;;;;;34.30;66.90;;;;;;5031799;28;19909;-55
2023/07/09 11:14:01;;;;;;;;;;;34.20;67.20;;;;;;5031565;28;20427;-54
2023/07/09 11:16:30;;;;;;;;;;;34.20;67.90;;;;;;5031855;28;19909;-53
2023/07/09 11:18:58;;;;;;;;;;;34.10;68.30;;;;;;5031566;28;19917;-54
2023/07/09 11:21:23;;;;;;;;;;;34.30;68.30;;;;;;5031544;28;20284;-56
2023/07/09 11:23:51;;;;;;;;;;;34.50;67.10;;;;;;5031421;28;19937;-55
2023/07/09 11:26:16;;;;;;;;;;;34.50;66.60;;;;;;5031717;28;20362;-53
2023/07/09 11:28:47;;;;;;;;;;;34.60;67.20;;;;;;5031782;28;20175;-51
2023/07/09 11:31:33;;;;;;;;;;;34.60;68.40;;;;;;5031581;28;19917;-56
2023/07/09 11:34:01;;;;;;;;;;;34.70;65.90;;;;;;5031246;28;20336;-52
2023/07/09 11:36:28;;;;;;;;;;;34.60;66.60;;;;;;5031566;28;19909;-55
2023/07/09 11:38:54;;;;;;;;;;;34.50;67.20;;;;;;5031528;28;19913;-54
2023/07/09 11:41:40;;;;;;;;;;;34.50;67.60;;;;;;5031375;28;19954;-56
2023/07/09 11:44:08;;;;;;;;;;;34.50;67.70;;;;;;5031342;28;19908;-55
2023/07/09 11:46:35;;;;;;;;;;;34.70;68.20;;;;;;5031365;28;19908;-54
2023/07/09 11:49:01;;;;;;;;;;;34.70;66.70;;;;;;5031582;28;19916;-55
2023/07/09 11:51:47;;;;;;;;;;;34.80;66.80;;;;;;5031269;28;20169;-52
2023/07/09 11:54:16;;;;;;;;;;;34.80;66.00;;;;;;5030547;28;19913;-55
2023/07/09 11:56:42;;;;;;;;;;;34.90;67.00;;;;;;5031339;28;19943;-55
2023/07/09 11:59:10;;;;;;;;;;;35.00;66.40;;;;;;5031163;28;19925;-52
2023/07/09 12:01:42;;;;;;;;;;;35.10;65.50;;;;;;5031144;28;19936;-51
2023/07/09 12:04:11;;;;;;;;;;;35.10;64.90;;;;;;5030894;28;19963;-55
2023/07/09 12:06:38;;;;;;;;;;;35.10;64.70;;;;;;5030996;28;19913;-55
2023/07/09 12:09:04;;;;;;;;;;;35.00;63.70;;;;;;5031124;28;19971;-55
2023/07/09 12:11:33;;;;;;;;;;;35.00;63.40;;;;;;5013272;28;20396;-53
2023/07/09 12:14:06;;;;;;;;;;;35.00;63.50;;;;;;5030814;28;20308;-55
2023/07/09 12:16:39;;;;;;;;;;;35.00;63.20;;;;;;5031488;28;19909;-54
2023/07/09 12:19:05;;;;;;;;;;;35.00;62.70;;;;;;5030748;28;20379;-53
2023/07/09 12:21:32;;;;;;;;;;;35.00;62.90;;;;;;5030896;28;20032;-55
2023/07/09 12:23:57;;;;;;;;;;;34.90;63.10;;;;;;5030685;28;19909;-53
2023/07/09 12:26:23;;;;;;;;;;;35.00;63.70;;;;;;5031049;28;19909;-52
2023/07/09 12:28:57;;;;;;;;;;;35.10;63.90;;;;;;5031062;28;20365;-53
2023/07/09 12:31:26;;;;;;;;;;;35.20;63.40;;;;;;5030869;28;20114;-55
2023/07/09 12:33:53;;;;;;;;;;;35.10;63.50;;;;;;5030582;28;19909;-52
2023/07/09 12:36:19;;;;;;;;;;;35.00;64.10;;;;;;5031102;28;19913;-54
2023/07/09 12:38:52;;;;;;;;;;;35.10;62.70;;;;;;5031049;28;19989;-55
2023/07/09 12:41:26;;;;;;;;;;;35.10;62.40;;;;;;5030795;28;19956;-55
2023/07/09 12:43:53;;;;;;;;;;;35.00;62.90;;;;;;5030591;28;19913;-54
2023/07/09 12:46:19;;;;;;;;;;;34.70;63.40;;;;;;5030749;28;20289;-51
2023/07/09 12:48:46;;;;;;;;;;;34.70;64.10;;;;;;5030774;28;19909;-53
2023/07/09 12:51:24;;;;;;;;;;;34.70;65.10;;;;;;5030847;28;20034;-50
2023/07/09 12:54:01;;;;;;;;;;;34.70;65.40;;;;;;5030724;28;19956;-55
2023/07/09 12:56:27;;;;;;;;;;;34.70;64.30;;;;;;5030873;28;19909;-54
2023/07/09 12:58:56;;;;;;;;;;;34.70;64.20;;;;;;5030920;28;20286;-52
2023/07/09 13:01:23;;;;;;;;;;;34.60;65.40;;;;;;5030974;28;20331;-55
2023/07/09 13:03:53;;;;;;;;;;;34.50;64.70;;;;;;5030564;28;20411;-53
2023/07/09 13:06:26;;;;;;;;;;;34.50;65.50;;;;;;5033541;28;19909;-51
2023/07/09 13:08:55;;;;;;;;;;;34.40;66.30;;;;;;5034531;28;19912;-54
2023/07/09 13:11:20;;;;;;;;;;;34.40;65.80;;;;;;5034099;28;19909;-53
2023/07/09 13:13:59;;;;;;;;;;;34.30;66.40;;;;;;5033939;28;19956;-55
2023/07/09 13:16:25;;;;;;;;;;;34.20;66.40;;;;;;5034224;28;19917;-55
2023/07/09 13:18:50;;;;;;;;;;;34.10;64.90;;;;;;5033848;28;19968;-49
2023/07/09 13:21:17;;;;;;;;;;;34.10;65.20;;;;;;5034063;28;19931;-54
2023/07/09 13:23:42;;;;;;;;;;;34.00;65.60;;;;;;5034037;28;19913;-52
2023/07/09 13:26:08;;;;;;;;;;;33.80;67.30;;;;;;5016281;28;20328;-54
2023/07/09 13:28:34;;;;;;;;;;;33.60;68.30;;;;;;5033990;28;19916;-51
2023/07/09 13:31:01;;;;;;;;;;;33.40;69.10;;;;;;5034231;28;20343;-51
2023/07/09 13:33:27;;;;;;;;;;;33.20;69.70;;;;;;5033430;28;19909;-52
2023/07/09 13:35:53;;;;;;;;;;;33.10;70.90;;;;;;5033514;28;20262;-50
2023/07/09 13:38:20;;;;;;;;;;;32.90;71.70;;;;;;5033507;28;20421;-53
2023/07/09 13:40:51;;;;;;;;;;;32.70;77.50;;;;;;5033664;28;19909;-51
2023/07/09 13:43:33;;;;;;;;;;;32.50;74.80;;;;;;5033296;28;19909;-52
2023/07/09 13:46:00;;;;;;;;;;;32.50;75.70;;;;;;5033488;28;20003;-54
2023/07/09 13:48:26;;;;;;;;;;;32.30;77.50;;;;;;5033388;28;19909;-55
2023/07/09 13:50:52;;;;;;;;;;;32.00;77.50;;;;;;5033535;28;20300;-51
2023/07/09 13:53:19;;;;;;;;;;;31.70;79.90;;;;;;5015446;28;19920;-52
2023/07/09 13:55:45;;;;;;;;;;;31.30;83.80;;;;;;5033224;28;19932;-54
2023/07/09 13:58:12;;;;;;;;;;;30.90;83.50;;;;;;5033298;28;19909;-54
2023/07/09 14:00:38;;;;;;;;;;;30.30;85.50;;;;;;5033329;28;20101;-52
2023/07/09 14:03:09;;;;;;;;;;;29.80;90.20;;;;;;5032991;28;19916;-53
2023/07/09 14:05:35;;;;;;;;;;;29.30;91.00;;;;;;5032918;28;19909;-53
2023/07/09 14:08:00;;;;;;;;;;;28.80;91.40;;;;;;5033095;28;19916;-51
2023/07/09 14:10:26;;;;;;;;;;;28.40;92.70;;;;;;5033051;28;19927;-55
2023/07/09 14:12:52;;;;;;;;;;;28.20;93.10;;;;;;5032860;28;19931;-52
2023/07/09 14:15:19;;;;;;;;;;;28.00;93.10;;;;;;5032874;28;19963;-51
2023/07/09 14:17:46;;;;;;;;;;;27.80;93.30;;;;;;5031769;28;19925;-51